Skip Navigation Linkwww.weather.gov 
NOAA Logo - Click to go to the NOAA homepage National Weather Service   NWS logo - Click to go to the NWS homepage
Alaska Region Headquarters
Top left navbar Home Site Map National News Organization
  Nav bar end cap
Follow the National Weather Service Alaska Region on Facebook Follow the National Weather Service in Alaska on Twitter
UsaGov
Show Decoded Observations
Whittier Observations
TESTM WHMA2 221949Z AUTO 25019KT SKC M05/M11 A2966 RMK A02 SLP045 T10511106 PK WND 00030/0000
TESTM WHMA2 221919Z AUTO 23017KT SKC M04/M12 A2968 RMK A02 SLP051 T10401119 PK WND 00030/0000
TESTM WHMA2 221849Z AUTO 23018KT SKC M04/M12 A2969 RMK A02 SLP055 T10381118 PK WND 00029/0000
TESTM WHMA2 221819Z AUTO 23019KT SKC M04/M11 A2971 RMK A02 SLP060 T10451109 PK WND 00028/0000
TESTM WHMA2 221749Z AUTO 22020KT SKC M04/M11 A2971 RMK A02 SLP059 T10401114 PK WND 00030/0000
TESTM WHMA2 221719Z AUTO 23020KT SKC M04/M11 A2971 RMK A02 SLP061 T10391112 PK WND 00034/0000
TESTM WHMA2 221649Z AUTO 23019KT SKC M05/M11 A2972 RMK A02 SLP063 T10481106 PK WND 00034/0000
TESTM WHMA2 221619Z AUTO 24018KT SKC M05/M10 A2973 RMK A02 SLP066 T10471098 PK WND 00038/0000
TESTM WHMA2 221549Z AUTO 24019KT SKC M04/M10 A2971 RMK A02 SLP062 T10451100 PK WND 00039/0000
TESTM WHMA2 221519Z AUTO 23026KT FEW003 FEW004 M05/M08 A2972 RMK A02 SLP063 T10541085 PK WND 00039/0000
TESTM WHMA2 221449Z AUTO 22025KT FEW005 M05/M09 A2973 RMK A02 SLP067 T10511088 PK WND 00037/0000
TESTM WHMA2 221419Z AUTO 22024KT FEW008 M05/M09 A2975 RMK A02 SLP073 T10491089 PK WND 00036/0000
TESTM WHMA2 221349Z AUTO 22024KT FEW010 M05/M09 A2976 RMK A02 SLP076 T10501087 PK WND 00038/0000
TESTM WHMA2 221319Z AUTO 22023KT SCT006 M05/M08 A2976 RMK A02 SLP078 T10491081 PK WND 00038/0000
TESTM WHMA2 221249Z AUTO 22028KT FEW008 M05/M08 A2975 RMK A02 SLP073 T10511081 PK WND 00037/0000
TESTM WHMA2 221219Z AUTO 23025KT BKN007 M05/M08 A2976 RMK A02 SLP079 T10521076 PK WND 00034/0000
TESTM WHMA2 221149Z AUTO 23022KT FEW007 BKN110 M05/M08 A2979 RMK A02 SLP086 T10521077 PK WND 00034/0000
TESTM WHMA2 221119Z AUTO 22022KT BKN100 M05/M08 A2980 RMK A02 SLP090 T10491079 PK WND 00035/0000
TESTM WHMA2 221049Z AUTO 23024KT FEW009 BKN100 M05/M08 A2979 RMK A02 SLP089 T10461080 PK WND 00035/0000
TESTM WHMA2 221019Z AUTO 24020KT FEW007 FEW045 BKN095 M04/M08 A2979 RMK A02 SLP089 T10451076 PK WND 00034/0000
TESTM WHMA2 220949Z AUTO 24021KT FEW043 BKN090 M05/M08 A2981 RMK A02 SLP093 T10461078 PK WND 00034/0000
TESTM WHMA2 220919Z AUTO 23022KT FEW038 BKN085 M04/M08 A2980 RMK A02 SLP092 T10451077 PK WND 00033/0000
TESTM WHMA2 220849Z AUTO 24020KT FEW014 BKN085 M05/M08 A2980 RMK A02 SLP091 T10481077 PK WND 00037/0000
TESTM WHMA2 220819Z AUTO 23024KT FEW018 BKN085 BKN140 M04/M08 A2981 RMK A02 SLP093 T10451080 PK WND 00037/0000
TESTM WHMA2 220749Z AUTO 23019KT BKN070 BKN140 M04/M08 A2981 RMK A02 SLP093 T10421078 PK WND 00034/0000
TESTM WHMA2 220719Z AUTO 22021KT BKN060 BKN150 M05/M07 A2980 RMK A02 SLP092 T10481069 PK WND 00034/0000
TESTM WHMA2 220649Z AUTO 23022KT FEW006 SCT090 BKN150 M05/M07 A2979 RMK A02 SLP087 T10461071 PK WND 00032/0000
TESTM WHMA2 220619Z AUTO 22020KT BKN090 M04/M08 A2979 RMK A02 SLP088 T10381078 PK WND 00034/0000
TESTM WHMA2 220549Z AUTO 22022KT FEW050 SCT070 BKN140 M04/M08 A2980 RMK A02 SLP091 T10431077 PK WND 00035/0000
TESTM WHMA2 220519Z AUTO 22027KT FEW005 BKN070 M05/M08 A2979 RMK A02 SLP089 T10461077 PK WND 00036/0000
TESTM WHMA2 220449Z AUTO 22024KT SCT008 BKN050 M04/M08 A2981 RMK A02 SLP094 T10421076 PK WND 00036/0000
TESTM WHMA2 220419Z AUTO 23025KT FEW018 BKN055 M05/M08 A2981 RMK A02 SLP093 T10461079 PK WND 00037/0000
TESTM WHMA2 220349Z AUTO 23028KT OVC048 M04/M09 A2980 RMK A02 SLP090 P0001 T10441094 PK WND 00037/0000
TESTM WHMA2 220319Z AUTO 23024KT FEW080 BKN100 M03/M12 A2979 RMK A02 SLP087 T10291120 PK WND 00031/0000
TESTM WHMA2 220249Z AUTO 26012KT BKN090 M00/M08 A2978 RMK A02 SLP085 T10051085 PK WND 00027/0000
TESTM WHMA2 220219Z AUTO 25013KT BKN080 M01/M09 A2980 RMK A02 SLP091 T10141087 PK WND 00030/0000
TESTM WHMA2 220149Z AUTO 23020KT FEW095 BKN120 M02/M12 A2981 RMK A02 SLP096 T10251120 PK WND 00030/0000
TESTM WHMA2 220119Z AUTO 25015KT SCT130 SCT160 M00/M10 A2982 RMK A02 SLP097 T10041104
TESTM WHMA2 220049Z AUTO 00000KT SCT120 M03/M07 A2982 RMK A02 SLP099 T10301068
TESTM WHMA2 220019Z AUTO 00000KT BKN120 M03/M07 A2983 RMK A02 SLP101 T10311067
TESTM WHMA2 212349Z AUTO 00000KT SCT120 BKN180 M04/M07 A2984 RMK A02 SLP104 T10361072
TESTM WHMA2 212319Z AUTO 00000KT SCT140 BKN180 M03/M08 A2986 RMK A02 SLP110 T10341076
TESTM WHMA2 212249Z AUTO 00000KT BKN150 M04/M08 A2987 RMK A02 SLP114 T10381081
TESTM WHMA2 212219Z AUTO 00000KT SCT150 M04/M08 A2988 RMK A02 SLP119 T10401083
TESTM WHMA2 212149Z AUTO 00000KT SKC M04/M08 A2988 RMK A02 SLP117 T10381080
TESTM WHMA2 212119Z AUTO 00000KT SKC M04/M08 A2988 RMK A02 SLP119 T10401075
TESTM WHMA2 212049Z AUTO 00000KT SKC M04/M08 A2989 RMK A02 SLP121 T10441083
TESTM WHMA2 212019Z AUTO 00000KT SKC M05/M08 A2990 RMK A02 SLP124 T10481081
TESTM WHMA2 211949Z AUTO 00000KT SKC M05/M09 A2990 RMK A02 SLP124 T10501092
TESTM WHMA2 211919Z AUTO 00000KT SKC M04/M08 A2990 RMK A02 SLP124 T10441085
TESTM WHMA2 211849Z AUTO 00000KT BKN190 M05/M09 A2989 RMK A02 SLP122 T10511087
TESTM WHMA2 211819Z AUTO 00000KT BKN190 M06/M08 A2989 RMK A02 SLP120 T10601081
TESTM WHMA2 211749Z AUTO 00000KT BKN210 M06/M09 A2989 RMK A02 SLP122 T10631088
TESTM WHMA2 211719Z AUTO 00000KT SCT220 M07/M10 A2989 RMK A02 SLP122 T10681100
TESTM WHMA2 211649Z AUTO 00000KT BKN230 M07/M10 A2989 RMK A02 SLP120 T10671095
TESTM WHMA2 211619Z AUTO 00000KT SKC M06/M09 A2988 RMK A02 SLP119 T10641086
TESTM WHMA2 211549Z AUTO 00000KT SKC M07/M09 A2989 RMK A02 SLP120 T10661087
TESTM WHMA2 211519Z AUTO 00000KT SKC M06/M08 A2988 RMK A02 SLP118 T10581083
TESTM WHMA2 211449Z AUTO 00000KT BKN240 M05/M08 A2988 RMK A02 SLP118 T10531080
TESTM WHMA2 211419Z AUTO 00000KT SKC M06/M08 A2988 RMK A02 SLP117 T10581084
TESTM WHMA2 211349Z AUTO 00000KT SKC M06/M09 A2988 RMK A02 SLP118 T10631093
TESTM WHMA2 211319Z AUTO 00000KT SKC M06/M09 A2988 RMK A02 SLP117 T10611088
TESTM WHMA2 211249Z AUTO 00000KT SKC M06/M08 A2988 RMK A02 SLP119 T10571085
TESTM WHMA2 211219Z AUTO 00000KT SKC M06/M09 A2988 RMK A02 SLP117 T10601093
TESTM WHMA2 211149Z AUTO 00000KT SKC M06/M09 A2987 RMK A02 SLP116 T10601090
TESTM WHMA2 211119Z AUTO 00000KT SKC M06/M08 A2987 RMK A02 SLP114 T10601085
TESTM WHMA2 211049Z AUTO 00000KT SKC M06/M10 A2986 RMK A02 SLP113 T10621099
TESTM WHMA2 211019Z AUTO 00000KT SKC M06/M10 A2986 RMK A02 SLP112 T10631095
TESTM WHMA2 210949Z AUTO 00000KT SKC M06/M10 A2986 RMK A02 SLP113 T10601098
TESTM WHMA2 210919Z AUTO 00000KT SKC M05/M10 A2986 RMK A02 SLP111 T10541096
TESTM WHMA2 210849Z AUTO 00000KT SKC M06/M09 A2985 RMK A02 SLP109 T10591091
TESTM WHMA2 210819Z AUTO 00000KT SKC M06/M10 A2985 RMK A02 SLP109 T10591098
TESTM WHMA2 210749Z AUTO 00000KT SKC M05/M09 A2985 RMK A02 SLP107 T10481090
TESTM WHMA2 210719Z AUTO 00000KT SKC M05/M09 A2984 RMK A02 SLP103 T10461090
TESTM WHMA2 210649Z AUTO 00000KT SKC M04/M09 A2983 RMK A02 SLP102 T10371088
TESTM WHMA2 210619Z AUTO 00000KT SKC M04/M09 A2982 RMK A02 SLP099 T10411093
TESTM WHMA2 210549Z AUTO 00000KT SKC M02/M09 A2982 RMK A02 SLP097 T10201093
TESTM WHMA2 210519Z AUTO 23012KT SKC M02/M10 A2981 RMK A02 SLP093 T10211105
TESTM WHMA2 210449Z AUTO 00000KT SKC M03/M09 A2980 RMK A02 SLP090 T10301091
TESTM WHMA2 210419Z AUTO 00000KT SKC M04/M08 A2979 RMK A02 SLP087 T10371083
TESTM WHMA2 210349Z AUTO 2003KT SKC M03/M10 A2979 RMK A02 SLP088 T10271096
TESTM WHMA2 210319Z AUTO 00000KT SKC M04/M08 A2978 RMK A02 SLP083 T10351083
TESTM WHMA2 210249Z AUTO 00000KT SKC M04/M09 A2977 RMK A02 SLP081 T10411088
TESTM WHMA2 210219Z AUTO 00000KT SKC M03/M09 A2976 RMK A02 SLP077 T10331092
TESTM WHMA2 210149Z AUTO 2703KT SKC M02/M10 A2976 RMK A02 SLP077 T10221095
TESTM WHMA2 210119Z AUTO 00000KT SKC M03/M08 A2975 RMK A02 SLP075 T10321078
TESTM WHMA2 210049Z AUTO 00000KT SKC M03/M09 A2974 RMK A02 SLP070 T10301089
TESTM WHMA2 210019Z AUTO 00000KT SKC M04/M08 A2974 RMK A02 SLP070 T10351081
TESTM WHMA2 202349Z AUTO 00000KT SKC M02/M08 A2974 RMK A02 SLP070 T10231084
TESTM WHMA2 202319Z AUTO 00000KT BKN230 M02/M08 A2973 RMK A02 SLP066 T10231083
TESTM WHMA2 202249Z AUTO 00000KT BKN220 M02/M08 A2971 RMK A02 SLP062 T10241080
TESTM WHMA2 202219Z AUTO 00000KT FEW200 M02/M07 A2970 RMK A02 SLP058 T10221073
TESTM WHMA2 202149Z AUTO 00000KT BKN190 M02/M07 A2970 RMK A02 SLP057 T10201070
TESTM WHMA2 202120Z AUTO 2703KT FEW180 FEW220 M02/M07 A2970 RMK A02 SLP057 T10191068
TESTM WHMA2 202049Z AUTO 00000KT BKN180 M02/M07 A2969 RMK A02 SLP055 T10171070
TESTM WHMA2 202019Z AUTO 00000KT BKN170 M02/M07 A2968 RMK A02 SLP051 T10191070

Alaska Region Headquarters
222 West 7th Avenue #23
Anchorage, AK 99513-7575
Voice: 1-907-271-5088
Fax: 1-907-271-3711
Recorded Forecast: 1-800-472-0391
Webmaster Email: ARH Webauthors
Page Modified: 03 Feb 2008 18:00 UTC
About Us
Career Opportunities
Glossary
Credits
Disclaimer
Privacy Policy